Time;durP1;ratioP1;P1;durP2;ratioP2;P2;SDS_P1;SDS_P2;PMS_P1;PMS_P2;Temp;Humidity;BMP_temperature;BMP_pressure;BME280_temperature;BME280_humidity;BME280_pressure;Samples;Min_cycle;Max_cycle;Signal;HPM_P1;HPM_P2
2021/09/08 00:00:45;;;;;;;10.37;9.03;;;;;;;13.42;95.00;96259.44;5038186;28;24427;-76
2021/09/08 00:03:10;;;;;;;15.27;9.70;;;;;;;13.36;96.14;96252.06;5039084;28;24900;-78
2021/09/08 00:05:36;;;;;;;12.97;9.43;;;;;;;13.34;96.49;96256.53;5036808;28;24965;-77
2021/09/08 00:08:02;;;;;;;17.40;9.43;;;;;;;13.37;95.94;96248.53;5038284;28;24419;-77
2021/09/08 00:10:28;;;;;;;15.38;8.48;;;;;;;13.37;95.58;96246.75;5036664;28;25001;-77
2021/09/08 00:12:53;;;;;;;9.90;8.77;;;;;;;13.36;96.03;96244.28;5034104;28;24427;-77
2021/09/08 00:15:19;;;;;;;13.60;8.80;;;;;;;13.35;95.35;96245.19;5032982;28;24400;-76
2021/09/08 00:17:44;;;;;;;12.83;9.10;;;;;;;13.27;95.78;96243.09;5034246;28;24917;-77
2021/09/08 00:20:11;;;;;;;13.40;9.18;;;;;;;13.19;96.77;96238.38;5034720;28;24392;-77
2021/09/08 00:22:37;;;;;;;16.15;9.63;;;;;;;13.21;97.03;96233.06;5034349;28;24765;-77
2021/09/08 00:25:05;;;;;;;10.95;9.13;;;;;;;13.19;96.13;96240.13;5033266;28;24427;-77
2021/09/08 00:27:30;;;;;;;11.18;9.45;;;;;;;13.16;98.42;96229.94;5032913;28;24418;-77
2021/09/08 00:29:55;;;;;;;11.47;9.27;;;;;;;13.09;99.10;96237.31;5038621;28;24964;-78
2021/09/08 00:32:21;;;;;;;11.83;8.43;;;;;;;13.13;97.50;96233.59;5021823;28;24411;-76
2021/09/08 00:34:46;;;;;;;11.48;8.48;;;;;;;13.12;95.83;96225.88;5037610;28;24885;-77
2021/09/08 00:37:12;;;;;;;10.60;8.90;;;;;;;13.10;93.35;96220.78;5039370;28;24427;-78
2021/09/08 00:39:37;;;;;;;15.00;9.27;;;;;;;12.95;93.14;96221.78;5023071;28;24408;-76
2021/09/08 00:42:14;;;;;;;11.97;9.03;;;;;;;12.79;94.99;96217.56;5038325;28;24451;-76
2021/09/08 00:44:39;;;;;;;13.88;8.55;;;;;;;12.83;93.88;96220.81;5039776;28;24423;-77
2021/09/08 00:47:05;;;;;;;10.87;8.30;;;;;;;12.82;93.53;96226.91;5039558;28;25081;-78
2021/09/08 00:49:31;;;;;;;9.17;8.27;;;;;;;12.71;94.26;96217.22;5039228;28;24546;-78
2021/09/08 00:52:01;;;;;;;9.73;8.43;;;;;;;12.64;95.32;96218.53;5038696;28;25059;-78
2021/09/08 00:54:27;;;;;;;10.68;8.60;;;;;;;12.60;96.65;96220.50;5038403;28;24412;-78
2021/09/08 00:56:54;;;;;;;9.30;8.37;;;;;;;12.53;98.58;96215.78;5040487;28;25086;-77
2021/09/08 00:59:20;;;;;;;12.63;9.43;;;;;;;12.54;98.77;96214.88;5039490;28;24407;-76
2021/09/08 01:01:46;;;;;;;9.80;8.80;;;;;;;12.56;98.96;96213.00;5023138;28;24412;-77
2021/09/08 01:04:13;;;;;;;15.65;10.02;;;;;;;12.62;98.98;96207.41;5040256;28;24420;-77
2021/09/08 01:06:40;;;;;;;16.67;9.20;;;;;;;12.66;99.03;96210.66;5021287;28;24503;-78
2021/09/08 01:09:06;;;;;;;10.27;9.20;;;;;;;12.73;96.16;96206.75;5038602;28;24862;-77
2021/09/08 01:11:31;;;;;;;11.52;9.32;;;;;;;12.74;96.40;96205.78;5038556;28;24894;-77
2021/09/08 01:13:57;;;;;;;10.10;9.10;;;;;;;12.77;96.35;96203.84;5036378;28;24435;-77
2021/09/08 01:16:22;;;;;;;11.05;9.50;;;;;;;12.65;96.37;96204.63;5038443;28;24512;-77
2021/09/08 01:18:48;;;;;;;13.45;10.38;;;;;;;12.62;97.96;96204.81;5035424;28;24412;-78
2021/09/08 01:21:13;;;;;;;14.53;10.17;;;;;;;12.59;97.65;96210.22;5035095;28;24417;-78
2021/09/08 01:23:39;;;;;;;14.27;10.20;;;;;;;12.53;99.18;96200.19;5018136;28;24447;-77
2021/09/08 01:26:05;;;;;;;10.47;9.37;;;;;;;12.54;99.88;96194.91;5031403;28;25308;-78
2021/09/08 01:28:31;;;;;;;11.63;9.27;;;;;;;12.54;99.50;96196.69;5033583;28;24423;-78
2021/09/08 01:30:58;;;;;;;10.95;9.80;;;;;;;12.57;98.70;96199.94;5034678;28;25193;-78
2021/09/08 01:33:23;;;;;;;11.13;9.80;;;;;;;12.55;99.76;96198.34;5033480;28;24972;-77
2021/09/08 01:35:49;;;;;;;10.63;9.30;;;;;;;12.56;99.34;96194.81;5035385;28;24401;-77
2021/09/08 01:38:15;;;;;;;14.63;9.83;;;;;;;12.59;98.65;96192.03;5035887;28;24563;-77
2021/09/08 01:40:40;;;;;;;12.93;9.63;;;;;;;12.56;98.65;96193.03;5024082;28;24411;-78
2021/09/08 01:43:06;;;;;;;14.10;8.85;;;;;;;12.54;98.82;96194.09;5024848;28;25103;-78
2021/09/08 01:45:31;;;;;;;10.23;9.10;;;;;;;12.58;97.70;96190.38;5040351;28;24412;-77
2021/09/08 01:47:57;;;;;;;10.67;8.63;;;;;;;12.60;97.66;96196.28;5042454;28;24469;-78
2021/09/08 01:50:23;;;;;;;12.00;9.33;;;;;;;12.61;98.06;96192.78;5040739;28;24479;-78
2021/09/08 01:52:50;;;;;;;10.52;8.48;;;;;;;12.60;98.23;96193.69;5036692;28;24420;-78
2021/09/08 01:55:16;;;;;;;9.43;8.52;;;;;;;12.57;98.00;96184.34;5036339;28;24523;-77
2021/09/08 01:57:42;;;;;;;12.63;9.45;;;;;;;12.58;96.86;96192.97;5036780;28;24518;-77
2021/09/08 02:00:09;;;;;;;9.40;8.30;;;;;;;12.50;96.80;96184.84;5038585;28;24408;-77
2021/09/08 02:02:35;;;;;;;9.13;8.23;;;;;;;12.45;96.26;96187.69;5036847;28;24503;-77
2021/09/08 02:05:00;;;;;;;13.00;8.60;;;;;;;12.44;96.31;96182.63;5036345;28;24432;-78
2021/09/08 02:07:26;;;;;;;9.30;7.83;;;;;;;12.26;98.92;96180.25;5034500;28;24510;-77
2021/09/08 02:09:52;;;;;;;11.03;8.43;;;;;;;12.28;98.44;96175.78;5035431;28;24431;-77
2021/09/08 02:12:17;;;;;;;11.07;8.82;;;;;;;12.25;98.41;96183.78;5033801;28;24452;-77
2021/09/08 02:14:42;;;;;;;9.80;8.57;;;;;;;12.22;99.58;96180.53;5033225;28;25061;-77
2021/09/08 02:17:08;;;;;;;9.23;8.00;;;;;;;12.14;98.76;96183.59;5034937;28;24464;-76
2021/09/08 02:19:33;;;;;;;11.88;8.88;;;;;;;12.21;95.48;96171.91;5036182;28;24407;-78
2021/09/08 02:21:58;;;;;;;10.27;9.10;;;;;;;12.17;93.38;96175.63;5043649;28;24444;-77
2021/09/08 02:24:24;;;;;;;13.67;8.97;;;;;;;12.01;95.19;96170.53;5043694;28;24435;-76
2021/09/08 02:26:49;;;;;;;10.97;9.20;;;;;;;11.90;97.39;96172.13;5026895;28;24408;-76
2021/09/08 02:29:15;;;;;;;10.07;9.07;;;;;;;11.82;99.05;96165.63;5026630;28;25155;-77
2021/09/08 02:31:40;;;;;;;10.90;8.97;;;;;;;11.85;99.21;96165.47;5041811;28;24502;-76
2021/09/08 02:34:05;;;;;;;10.47;8.83;;;;;;;11.88;99.05;96167.06;5026274;28;24427;-77
2021/09/08 02:36:31;;;;;;;10.17;9.13;;;;;;;11.94;98.48;96169.28;5044062;28;24798;-77
2021/09/08 02:38:56;;;;;;;10.18;9.15;;;;;;;11.98;97.20;96162.13;5044675;28;24407;-77
2021/09/08 02:41:25;;;;;;;12.52;9.15;;;;;;;12.03;96.00;96165.28;5043282;28;24523;-78
2021/09/08 02:43:51;;;;;;;12.77;10.18;;;;;;;12.00;95.99;96162.88;5042608;28;24469;-77
2021/09/08 02:46:16;;;;;;;11.13;8.98;;;;;;;11.93;96.73;96158.97;5032111;28;24953;-77
2021/09/08 02:48:42;;;;;;;11.00;9.40;;;;;;;11.87;95.80;96162.81;5033407;28;24407;-77
2021/09/08 02:51:07;;;;;;;17.03;10.03;;;;;;;11.79;97.14;96157.19;5033346;28;24573;-77
2021/09/08 02:53:33;;;;;;;11.82;10.27;;;;;;;11.66;98.76;96158.88;5031893;28;24519;-77
2021/09/08 02:56:00;;;;;;;16.70;10.13;;;;;;;11.70;98.56;96165.56;5033191;28;24483;-77
2021/09/08 02:58:25;;;;;;;16.17;10.70;;;;;;;11.75;97.68;96148.75;5032078;28;24424;-76
2021/09/08 03:00:51;;;;;;;12.50;10.70;;;;;;;11.62;99.31;96147.84;5032013;28;24439;-77
2021/09/08 03:03:16;;;;;;;12.53;9.70;;;;;;;11.61;99.65;96151.38;5032024;28;24806;-76
2021/09/08 03:05:41;;;;;;;11.45;9.57;;;;;;;11.52;99.38;96150.16;5032945;28;24479;-77
2021/09/08 03:08:07;;;;;;;12.67;9.93;;;;;;;11.50;100.00;96136.47;5031993;28;24423;-76
2021/09/08 03:10:34;;;;;;;11.97;9.87;;;;;;;11.49;100.00;96142.56;5031776;28;25200;-76
2021/09/08 03:12:59;;;;;;;12.25;9.60;;;;;;;11.51;100.00;96150.28;5031678;28;24416;-77
2021/09/08 03:15:25;;;;;;;11.85;9.73;;;;;;;11.52;100.00;96144.97;5032755;28;24942;-77
2021/09/08 03:17:50;;;;;;;10.43;9.40;;;;;;;11.52;100.00;96141.56;5015249;28;24411;-77
2021/09/08 03:20:15;;;;;;;12.30;9.40;;;;;;;11.61;100.00;96138.41;5031630;28;24766;-77
2021/09/08 03:22:41;;;;;;;12.17;9.57;;;;;;;11.68;97.74;96128.47;5032811;28;24461;-77
2021/09/08 03:25:07;;;;;;;11.80;8.73;;;;;;;11.70;97.21;96143.03;5032679;28;24483;-77
2021/09/08 03:27:33;;;;;;;8.77;7.88;;;;;;;11.68;96.82;96129.34;5031392;28;24458;-77
2021/09/08 03:29:58;;;;;;;7.43;6.20;;;;;;;11.66;95.44;96128.59;5031202;28;24768;-76
2021/09/08 03:32:23;;;;;;;9.30;8.10;;;;;;;11.62;95.08;96127.94;5032672;28;24936;-76
2021/09/08 03:34:49;;;;;;;12.33;8.93;;;;;;;11.52;95.39;96126.00;5032605;28;24415;-77
2021/09/08 03:37:14;;;;;;;11.07;8.65;;;;;;;11.34;98.17;96127.94;5014447;28;24455;-77
2021/09/08 03:39:40;;;;;;;9.88;8.27;;;;;;;11.35;98.92;96125.25;5032090;28;24384;-77
2021/09/08 03:42:05;;;;;;;10.57;8.33;;;;;;;11.34;98.05;96128.75;5031274;28;25143;-77
2021/09/08 03:44:30;;;;;;;8.73;7.80;;;;;;;11.37;98.66;96122.56;5031017;28;24794;-77
2021/09/08 03:46:56;;;;;;;9.60;7.93;;;;;;;11.37;98.46;96126.00;5030745;28;24487;-77
2021/09/08 03:49:21;;;;;;;9.27;8.23;;;;;;;11.35;98.57;96122.66;5031045;28;24466;-77
2021/09/08 03:51:46;;;;;;;8.15;7.35;;;;;;;11.43;95.80;96118.78;5014567;28;24396;-77
2021/09/08 03:54:12;;;;;;;9.10;8.13;;;;;;;11.38;95.88;96119.03;5032056;28;24412;-77
2021/09/08 03:56:37;;;;;;;11.80;8.77;;;;;;;11.30;96.43;96122.09;5030675;28;24498;-77
2021/09/08 03:59:03;;;;;;;10.13;8.03;;;;;;;11.26;97.44;96123.22;5030828;28;24487;-77
2021/09/08 04:01:28;;;;;;;11.43;8.23;;;;;;;11.28;97.81;96115.34;5030946;28;24415;-77
2021/09/08 04:03:53;;;;;;;10.85;8.50;;;;;;;11.25;98.56;96124.13;5031985;28;24408;-77
2021/09/08 04:06:19;;;;;;;10.43;8.20;;;;;;;11.22;98.04;96121.72;5031791;28;24400;-77
2021/09/08 04:08:44;;;;;;;10.10;8.47;;;;;;;11.19;98.19;96121.06;5031880;28;24487;-77
2021/09/08 04:11:10;;;;;;;12.37;9.37;;;;;;;11.26;95.49;96117.19;5030698;28;24404;-77
2021/09/08 04:13:38;;;;;;;13.20;9.73;;;;;;;11.26;95.19;96106.81;5030602;28;24440;-76
2021/09/08 04:16:04;;;;;;;10.75;9.55;;;;;;;11.26;96.07;96109.41;5031924;28;24755;-76
2021/09/08 04:18:29;;;;;;;13.00;9.10;;;;;;;11.07;98.16;96102.72;5031800;28;24412;-76
2021/09/08 04:20:55;;;;;;;11.60;9.40;;;;;;;11.02;99.66;96106.53;5013966;28;24455;-77
2021/09/08 04:23:20;;;;;;;14.83;9.43;;;;;;;11.02;99.91;96103.94;5031689;28;24523;-77
2021/09/08 04:25:45;;;;;;;11.23;9.63;;;;;;;11.03;99.99;96096.06;5013852;28;24495;-77
2021/09/08 04:28:11;;;;;;;11.50;9.47;;;;;;;11.06;99.18;96102.84;5031652;28;24940;-77
2021/09/08 04:30:36;;;;;;;9.87;8.47;;;;;;;11.10;98.17;96097.38;5030341;28;24442;-77
2021/09/08 04:33:02;;;;;;;10.02;8.25;;;;;;;11.15;94.62;96095.31;5031471;28;24419;-76
2021/09/08 04:35:27;;;;;;;13.82;8.38;;;;;;;11.12;93.30;96094.69;5031028;28;24403;-76
2021/09/08 04:37:52;;;;;;;12.90;9.03;;;;;;;10.99;93.67;96094.59;5031702;28;24766;-76
2021/09/08 04:40:17;;;;;;;11.87;8.73;;;;;;;10.88;95.51;96100.41;5031256;28;24475;-76
2021/09/08 04:42:43;;;;;;;8.63;7.77;;;;;;;10.83;96.21;96091.25;5031157;28;24976;-76
2021/09/08 04:45:08;;;;;;;13.07;9.57;;;;;;;10.81;99.81;96088.72;5029798;28;24451;-76
2021/09/08 04:47:34;;;;;;;13.60;9.35;;;;;;;10.86;100.00;96097.09;5026637;28;24412;-76
2021/09/08 04:49:59;;;;;;;12.83;9.60;;;;;;;10.92;100.00;96101.06;5025704;28;24427;-76
2021/09/08 04:52:25;;;;;;;12.13;8.40;;;;;;;11.00;97.86;96103.19;5030998;28;24546;-76
2021/09/08 04:54:50;;;;;;;10.90;8.63;;;;;;;10.98;97.94;96100.69;5029681;28;24416;-76
2021/09/08 04:57:15;;;;;;;9.07;8.13;;;;;;;11.02;97.56;96101.34;5030520;28;24985;-76
2021/09/08 04:59:41;;;;;;;12.73;8.50;;;;;;;11.05;94.95;96098.56;5029631;28;24805;-77
2021/09/08 05:02:06;;;;;;;12.93;8.77;;;;;;;11.02;96.59;96109.97;5031036;28;24483;-76
2021/09/08 05:04:31;;;;;;;11.40;8.37;;;;;;;10.96;95.70;96102.53;5030670;28;24436;-77
2021/09/08 05:06:57;;;;;;;10.73;8.60;;;;;;;10.87;96.65;96101.34;5030458;28;24805;-76
2021/09/08 05:09:22;;;;;;;11.02;8.52;;;;;;;10.84;97.72;96092.91;5030663;28;24424;-76
2021/09/08 05:11:47;;;;;;;9.13;8.23;;;;;;;10.82;98.39;96102.50;5030702;28;24454;-77
2021/09/08 05:14:13;;;;;;;11.70;8.83;;;;;;;10.86;98.06;96098.81;5029490;28;24439;-76
2021/09/08 05:16:38;;;;;;;10.57;9.10;;;;;;;10.83;97.88;96099.84;5030107;28;24493;-77
2021/09/08 05:19:03;;;;;;;9.40;8.25;;;;;;;10.85;97.58;96097.97;5029303;28;24467;-77
2021/09/08 05:21:29;;;;;;;12.73;9.17;;;;;;;11.02;95.65;96094.41;5030543;28;24937;-76
2021/09/08 05:23:54;;;;;;;11.53;8.90;;;;;;;11.06;95.60;96095.06;5037702;28;24530;-76
2021/09/08 05:26:19;;;;;;;11.20;9.23;;;;;;;11.01;96.38;96097.06;5035672;28;24412;-76
2021/09/08 05:28:46;;;;;;;10.02;8.68;;;;;;;10.98;96.40;96097.28;5031007;28;24420;-75
2021/09/08 05:31:11;;;;;;;16.00;8.65;;;;;;;10.99;95.65;96097.19;5030935;28;24442;-76
2021/09/08 05:33:37;;;;;;;8.77;7.83;;;;;;;11.14;94.73;96098.03;5029276;28;24416;-77
2021/09/08 05:36:03;;;;;;;8.33;7.57;;;;;;;11.12;95.71;96099.84;5012216;28;24403;-76
2021/09/08 05:38:28;;;;;;;12.52;8.57;;;;;;;11.11;96.29;96100.78;5030358;28;24747;-76
2021/09/08 05:40:53;;;;;;;12.43;8.50;;;;;;;11.17;97.20;96091.84;5030146;28;24399;-76
2021/09/08 05:43:19;;;;;;;16.03;8.97;;;;;;;11.27;98.17;96096.38;5029113;28;24416;-76
2021/09/08 05:45:44;;;;;;;10.93;9.43;;;;;;;11.37;99.15;96096.63;5029685;28;24399;-77
2021/09/08 05:48:10;;;;;;;14.48;9.65;;;;;;;11.41;99.61;96095.50;5029814;28;24408;-76
2021/09/08 05:50:36;;;;;;;11.73;9.65;;;;;;;11.51;99.16;96098.41;5029984;28;24786;-76
2021/09/08 05:53:03;;;;;;;10.67;9.07;;;;;;;11.67;99.53;96098.28;5030078;28;24475;-76
2021/09/08 05:55:32;;;;;;;9.30;8.32;;;;;;;11.80;99.22;96094.84;5012169;28;24408;-76
2021/09/08 05:57:57;;;;;;;10.38;9.10;;;;;;;11.93;99.76;96099.28;5029572;28;24411;-76
2021/09/08 06:00:23;;;;;;;12.00;9.35;;;;;;;12.09;99.39;96102.59;5029944;28;24416;-76
2021/09/08 06:02:48;;;;;;;11.00;9.47;;;;;;;12.18;98.63;96102.00;5033094;28;24454;-76
2021/09/08 06:05:13;;;;;;;13.00;9.27;;;;;;;12.31;98.87;96104.63;5033185;28;24411;-76
2021/09/08 06:07:39;;;;;;;15.37;10.57;;;;;;;12.48;97.58;96098.34;5034167;28;24489;-76
2021/09/08 06:10:06;;;;;;;14.30;9.80;;;;;;;12.63;98.07;96099.94;5032810;28;24431;-76
2021/09/08 06:12:31;;;;;;;13.70;10.73;;;;;;;12.72;96.73;96101.09;5016291;28;24502;-76
2021/09/08 06:14:56;;;;;;;12.53;10.47;;;;;;;12.71;95.39;96095.06;5034057;28;24495;-77
2021/09/08 06:17:22;;;;;;;13.95;10.25;;;;;;;12.78;93.65;96098.94;5032210;28;24408;-76
2021/09/08 06:19:47;;;;;;;13.82;10.52;;;;;;;12.96;94.64;96094.28;5032420;28;24420;-76
2021/09/08 06:22:13;;;;;;;17.27;10.37;;;;;;;12.90;93.36;96099.03;5033770;28;24400;-76
2021/09/08 06:24:38;;;;;;;11.53;9.40;;;;;;;12.99;94.81;96088.03;5032722;28;24766;-76
2021/09/08 06:27:03;;;;;;;13.73;10.10;;;;;;;13.10;95.79;96092.53;5032156;28;24550;-77
2021/09/08 06:29:29;;;;;;;11.90;10.23;;;;;;;13.28;95.45;96086.09;5033615;28;24489;-76
2021/09/08 06:31:54;;;;;;;12.33;10.27;;;;;;;13.28;94.66;96091.31;5032629;28;24408;-76
2021/09/08 06:34:19;;;;;;;13.50;10.17;;;;;;;13.42;92.72;96092.94;5015668;28;24423;-76
2021/09/08 06:36:45;;;;;;;11.18;9.77;;;;;;;13.52;94.15;96091.38;5033260;28;24973;-76
2021/09/08 06:39:10;;;;;;;12.23;9.80;;;;;;;13.76;94.64;96096.66;5033295;28;24400;-76
2021/09/08 06:41:35;;;;;;;12.40;10.33;;;;;;;13.98;94.68;96093.38;5032180;28;24934;-77
2021/09/08 06:44:01;;;;;;;11.00;9.93;;;;;;;14.22;92.96;96089.00;5032100;28;24518;-76
2021/09/08 06:46:26;;;;;;;11.30;9.97;;;;;;;14.39;90.76;96090.38;5031457;28;25019;-77
2021/09/08 06:48:51;;;;;;;12.20;10.87;;;;;;;14.56;89.77;96081.34;5031855;28;24511;-77
2021/09/08 06:51:17;;;;;;;13.43;10.68;;;;;;;14.71;89.00;96080.22;5015644;28;24506;-77
2021/09/08 06:53:42;;;;;;;12.63;10.57;;;;;;;14.86;88.43;96074.81;5033205;28;24428;-77
2021/09/08 06:56:08;;;;;;;13.87;10.30;;;;;;;15.01;87.94;96071.03;5031905;28;24400;-77
2021/09/08 06:58:33;;;;;;;13.63;11.13;;;;;;;14.82;85.52;96071.59;5032328;28;24392;-77
2021/09/08 07:00:59;;;;;;;14.13;10.88;;;;;;;15.06;87.01;96070.72;5031868;28;24416;-77
2021/09/08 07:03:24;;;;;;;13.93;10.87;;;;;;;15.15;85.81;96070.00;5032733;28;24420;-77
2021/09/08 07:05:49;;;;;;;12.60;10.73;;;;;;;15.44;85.69;96065.97;5031828;28;24506;-77
2021/09/08 07:08:16;;;;;;;13.50;11.13;;;;;;;15.65;82.72;96070.50;5031321;28;24418;-77
2021/09/08 07:10:41;;;;;;;13.67;11.87;;;;;;;15.84;83.78;96062.91;5031576;28;24551;-77
2021/09/08 07:13:08;;;;;;;15.18;11.93;;;;;;;16.10;84.48;96062.59;5032313;28;24408;-77
2021/09/08 07:15:34;;;;;;;12.45;11.25;;;;;;;16.44;84.76;96060.72;5048040;28;24758;-77
2021/09/08 07:18:00;;;;;;;14.70;11.80;;;;;;;16.66;82.91;96059.78;5032285;28;24407;-77
2021/09/08 07:20:25;;;;;;;12.57;11.27;;;;;;;16.90;83.51;96057.75;5032865;28;24387;-77
2021/09/08 07:22:51;;;;;;;13.23;11.80;;;;;;;17.15;81.52;96055.72;5032640;28;24392;-76
2021/09/08 07:25:16;;;;;;;16.40;11.87;;;;;;;17.33;83.12;96055.94;5031050;28;24650;-77
2021/09/08 07:27:41;;;;;;;16.13;11.53;;;;;;;17.44;77.41;96055.03;5032809;28;24434;-76
2021/09/08 07:30:07;;;;;;;15.27;10.55;;;;;;;17.63;79.87;96058.53;5032350;28;24518;-76
2021/09/08 07:32:33;;;;;;;17.65;11.60;;;;;;;17.87;78.97;96060.00;5032467;28;24404;-77
2021/09/08 07:34:59;;;;;;;14.02;12.02;;;;;;;17.89;74.82;96058.09;5030951;28;24976;-77
2021/09/08 07:37:25;;;;;;;16.30;11.57;;;;;;;17.63;75.37;96055.09;5014222;28;25028;-76
2021/09/08 07:39:51;;;;;;;19.52;11.27;;;;;;;17.60;76.23;96052.72;5032380;28;24415;-77
2021/09/08 07:42:16;;;;;;;19.63;12.32;;;;;;;17.38;77.87;96053.75;5031075;28;24415;-76
2021/09/08 07:44:43;;;;;;;14.75;11.43;;;;;;;17.27;78.69;96053.84;5032334;28;24802;-77
2021/09/08 07:47:08;;;;;;;16.52;11.18;;;;;;;17.41;78.91;96050.88;5031517;28;24455;-77
2021/09/08 07:49:34;;;;;;;14.02;11.40;;;;;;;17.42;79.54;96047.28;5032346;28;24428;-77
2021/09/08 07:51:59;;;;;;;16.03;11.60;;;;;;;17.62;77.84;96050.81;5032093;28;24404;-76
2021/09/08 07:54:24;;;;;;;21.50;11.37;;;;;;;17.97;77.49;96045.16;5031975;28;24450;-77
2021/09/08 07:56:50;;;;;;;16.77;12.03;;;;;;;17.98;76.55;96044.16;5031700;28;24462;-76
2021/09/08 07:59:15;;;;;;;13.47;10.90;;;;;;;18.17;77.10;96048.66;5031689;28;24454;-76
2021/09/08 08:01:41;;;;;;;17.20;10.90;;;;;;;18.53;74.29;96031.38;5031796;28;24850;-77
2021/09/08 08:04:09;;;;;;;12.45;10.02;;;;;;;18.68;74.31;96037.03;5031834;28;24872;-77
2021/09/08 08:06:35;;;;;;;15.40;10.95;;;;;;;18.55;74.05;96037.34;5031538;28;24410;-77
2021/09/08 08:09:00;;;;;;;17.17;9.90;;;;;;;18.57;75.40;96027.50;5030458;28;24404;-76
2021/09/08 08:11:25;;;;;;;16.27;10.00;;;;;;;18.59;75.15;96027.41;5031838;28;24404;-77
2021/09/08 08:13:51;;;;;;;15.40;10.47;;;;;;;18.70;73.93;96027.25;5031713;28;24847;-77
2021/09/08 08:16:16;;;;;;;14.83;11.10;;;;;;;18.62;72.72;96021.88;5031053;28;24550;-77
2021/09/08 08:18:42;;;;;;;15.63;9.53;;;;;;;19.08;70.80;96025.53;5030492;28;24404;-77
2021/09/08 08:21:07;;;;;;;13.32;9.70;;;;;;;19.62;68.24;96025.78;5031544;28;24515;-78
2021/09/08 08:23:32;;;;;;;15.90;10.60;;;;;;;19.54;68.01;96027.31;5030213;28;24474;-78
2021/09/08 08:25:58;;;;;;;15.20;9.70;;;;;;;19.59;66.30;96025.06;5031567;28;24498;-78
2021/09/08 08:28:23;;;;;;;10.63;8.25;;;;;;;20.21;63.90;96027.06;5042204;28;24472;-79
2021/09/08 08:30:49;;;;;;;8.37;7.27;;;;;;;20.68;55.88;96021.63;5040715;28;24424;-79
2021/09/08 08:33:14;;;;;;;8.93;7.00;;;;;;;21.06;54.29;96024.84;5041302;28;24419;-79
2021/09/08 08:35:39;;;;;;;7.70;6.65;;;;;;;21.25;51.90;96022.03;5036939;28;24411;-79
2021/09/08 08:38:05;;;;;;;10.93;6.43;;;;;;;21.44;50.28;96024.44;5017950;28;24427;-78
2021/09/08 08:40:31;;;;;;;7.27;5.73;;;;;;;21.50;49.83;96015.91;5034854;28;24766;-79
2021/09/08 08:42:57;;;;;;;7.47;6.27;;;;;;;21.48;50.39;96019.69;5034905;28;24874;-82
2021/09/08 08:45:23;;;;;;;9.60;6.47;;;;;;;21.46;53.27;96014.56;5033617;28;24416;-79
2021/09/08 08:47:49;;;;;;;9.27;6.65;;;;;;;21.25;47.62;96014.13;5032069;28;24415;-78
2021/09/08 08:50:15;;;;;;;8.13;6.20;;;;;;;21.30;46.67;96017.09;5031127;28;25012;-77
2021/09/08 08:52:41;;;;;;;10.35;6.68;;;;;;;21.53;49.59;96017.41;5017100;28;24960;-76
2021/09/08 08:55:08;;;;;;;7.90;6.05;;;;;;;21.74;51.66;96012.56;5014347;28;24407;-77
2021/09/08 08:57:34;;;;;;;8.13;6.22;;;;;;;21.83;47.48;96002.84;5030932;28;24402;-77
2021/09/08 08:59:59;;;;;;;9.93;5.97;;;;;;;21.73;46.71;96013.53;5032037;28;24388;-77
2021/09/08 09:02:30;;;;;;;8.60;6.40;;;;;;;21.91;45.83;96004.69;5031608;28;24440;-78
2021/09/08 09:04:58;;;;;;;7.33;5.93;;;;;;;21.97;45.74;96002.22;5030120;28;24548;-77
2021/09/08 09:07:30;;;;;;;7.70;6.25;;;;;;;21.89;45.25;96007.50;5030477;28;24407;-79
2021/09/08 09:10:09;;;;;;;9.07;6.32;;;;;;;21.94;48.68;95999.91;5016596;28;24546;-79
2021/09/08 09:12:40;;;;;;;9.80;6.40;;;;;;;22.01;46.29;96000.09;5033620;28;24929;-80
2021/09/08 09:15:07;;;;;;;15.10;6.53;;;;;;;22.12;53.69;96005.06;5033101;28;25015;-80
2021/09/08 09:17:35;;;;;;;8.05;6.88;;;;;;;22.19;47.61;96000.81;5031790;28;24470;-79
2021/09/08 09:20:09;;;;;;;9.73;6.43;;;;;;;22.38;50.55;95994.41;5033193;28;24992;-79
2021/09/08 09:22:41;;;;;;;7.45;6.20;;;;;;;22.53;48.93;95994.59;5015734;28;24427;-80
2021/09/08 09:25:09;;;;;;;8.20;6.43;;;;;;;22.66;47.43;95996.75;5030794;28;24490;-80
2021/09/08 09:27:42;;;;;;;7.22;6.53;;;;;;;22.58;48.32;95979.09;5032483;28;24443;-80
2021/09/08 09:30:10;;;;;;;7.03;6.32;;;;;;;22.65;50.78;95985.34;5032852;28;24458;-81
2021/09/08 09:32:40;;;;;;;20.27;8.27;;;;;;;22.48;49.78;95980.25;5025906;28;24499;-81
2021/09/08 09:35:08;;;;;;;9.02;6.75;;;;;;;22.49;49.94;95974.78;5013372;28;24434;-81
2021/09/08 09:37:35;;;;;;;14.80;8.90;;;;;;;22.50;49.32;95980.91;5027853;28;24412;-80
2021/09/08 09:40:03;;;;;;;10.10;7.07;;;;;;;23.02;50.43;95980.53;5012020;28;24466;-78
2021/09/08 09:42:31;;;;;;;9.68;7.22;;;;;;;23.13;48.38;95975.72;5033322;28;24460;-77
2021/09/08 09:45:05;;;;;;;17.92;6.90;;;;;;;23.39;47.99;95972.84;5032221;28;24447;-78
2021/09/08 09:47:38;;;;;;;10.32;6.63;;;;;;;23.41;44.00;95973.50;5020658;28;24404;-78
2021/09/08 09:50:06;;;;;;;8.73;6.17;;;;;;;23.46;44.76;95964.25;5016766;28;24966;-77
2021/09/08 09:52:33;;;;;;;24.23;11.85;;;;;;;23.64;48.56;95973.56;5017209;28;24423;-77
2021/09/08 09:54:59;;;;;;;19.85;11.25;;;;;;;23.52;47.48;95972.31;5045197;28;24391;-78
2021/09/08 09:57:26;;;;;;;27.20;12.97;;;;;;;23.12;47.66;95970.63;5038627;28;24458;-78
2021/09/08 09:59:52;;;;;;;42.42;19.40;;;;;;;23.31;49.46;95964.13;5030915;28;24917;-77
2021/09/08 10:02:18;;;;;;;11.65;7.07;;;;;;;23.37;46.13;95964.28;5029047;28;24449;-77
2021/09/08 10:04:44;;;;;;;9.83;7.77;;;;;;;23.43;50.69;95960.97;5012453;28;24412;-77
2021/09/08 10:07:10;;;;;;;20.95;10.40;;;;;;;23.58;50.44;95957.56;5025947;28;24414;-77
2021/09/08 10:09:36;;;;;;;8.68;6.93;;;;;;;23.55;51.23;95952.66;5030197;28;24435;-77
2021/09/08 10:12:05;;;;;;;14.55;8.60;;;;;;;23.43;49.65;95953.03;5028974;28;24941;-77
2021/09/08 10:14:32;;;;;;;11.43;6.97;;;;;;;23.46;46.76;95957.13;5028832;28;24420;-77
2021/09/08 10:17:02;;;;;;;9.23;6.90;;;;;;;23.45;46.96;95950.19;5028378;28;24417;-77
2021/09/08 10:19:28;;;;;;;10.55;6.90;;;;;;;23.52;48.52;95948.53;5030159;28;24599;-77
2021/09/08 10:22:03;;;;;;;13.03;7.20;;;;;;;23.93;51.39;95943.03;5012431;28;25017;-77
2021/09/08 10:24:29;;;;;;;66.88;16.08;;;;;;;24.17;49.20;95946.53;5028765;28;24412;-77
2021/09/08 10:26:54;;;;;;;10.07;6.60;;;;;;;24.17;50.19;95941.22;5029725;28;24980;-77
2021/09/08 10:29:26;;;;;;;7.70;6.27;;;;;;;24.14;48.80;95942.41;5030134;28;24419;-77
2021/09/08 10:31:52;;;;;;;7.17;6.43;;;;;;;24.20;51.63;95940.88;5030090;28;24995;-78
2021/09/08 10:34:19;;;;;;;10.17;6.83;;;;;;;24.00;48.68;95935.25;5028634;28;24475;-78
2021/09/08 10:36:46;;;;;;;8.27;6.40;;;;;;;24.01;53.07;95934.22;5029722;28;24459;-77
2021/09/08 10:39:20;;;;;;;7.47;6.40;;;;;;;24.23;51.87;95930.75;5012179;28;24465;-77
2021/09/08 10:41:47;;;;;;;8.43;6.68;;;;;;;23.94;48.97;95925.34;5029907;28;24951;-77
2021/09/08 10:44:14;;;;;;;7.38;6.30;;;;;;;23.96;50.95;95918.06;5029900;28;24440;-77
2021/09/08 10:46:57;;;;;;;7.43;6.57;;;;;;;23.98;51.54;95918.69;5029071;28;24461;-77
2021/09/08 10:49:40;;;;;;;8.43;6.75;;;;;;;24.11;49.00;95916.31;5031946;28;24396;-77
2021/09/08 10:52:10;;;;;;;11.20;7.00;;;;;;;24.08;50.99;95916.66;5036198;28;24411;-76
2021/09/08 10:54:54;;;;;;;8.15;7.10;;;;;;;23.96;49.60;95913.59;5020954;28;24463;-77
2021/09/08 10:57:44;;;;;;;9.50;7.03;;;;;;;23.88;50.08;95905.72;5036291;28;24845;-77
2021/09/08 11:00:12;;;;;;;7.47;6.60;;;;;;;24.07;50.06;95902.59;5035915;28;24454;-76
2021/09/08 11:02:43;;;;;;;10.85;7.38;;;;;;;24.07;51.63;95907.09;5034229;28;24408;-79
2021/09/08 11:05:10;;;;;;;9.30;7.07;;;;;;;24.07;47.86;95899.16;5038608;28;24975;-80
2021/09/08 11:07:43;;;;;;;6.88;6.15;;;;;;;24.49;48.37;95890.69;5040528;28;25000;-79
2021/09/08 11:10:10;;;;;;;7.55;6.35;;;;;;;24.74;49.11;95896.59;5044300;28;24428;-81
2021/09/08 11:12:53;;;;;;;9.02;6.47;;;;;;;24.67;49.76;95886.91;5022290;28;24436;-79
2021/09/08 11:15:29;;;;;;;8.90;6.47;;;;;;;24.73;49.08;95892.28;5042128;28;24589;-79
2021/09/08 11:17:55;;;;;;;9.40;6.43;;;;;;;24.70;50.79;95892.66;5038382;28;24411;-79
2021/09/08 11:20:20;;;;;;;7.30;6.53;;;;;;;24.66;50.84;95891.38;5037706;28;24766;-79